GW0352 Weather Reports


time (UTC)temp
C
wind
direction
speed
KPH
gust
KPH
rain 1hr
cm
rain 24hr
cm
rain mn
cm
humidity
%
barometer
mb
20260505084040 14 50 17.7 27.4 0.00 0.00 0.00 69 1004.1
20260505083540 15 48 19.3 32.2 0.00 0.00 0.00 70 1004.1
20260505083047 15 38 22.5 45.1 0.00 0.00 0.00 73 1003.9
20260505082540 15 36 22.5 45.1 0.00 0.00 0.00 75 1003.8
20260505082040 15 40 17.7 25.7 0.00 0.00 0.00 76 1003.8
20260505081558 15 36 19.3 25.7 0.00 0.00 0.00 76 1003.7
20260505081039 16 36 20.9 25.7 0.00 0.00 0.00 76 1003.7
20260505080542 16 50 17.7 25.7 0.00 0.00 0.00 76 1003.6
20260505080051 16 42 19.3 25.7 0.00 0.00 0.00 75 1003.5
20260505075540 16 59 19.3 24.1 0.00 0.00 0.00 74 1003.3
20260505075040 17 350 17.7 22.5 0.00 0.00 0.00 72 1003.1
20260505074549 18 13 17.7 22.5 0.00 0.00 0.00 70 1002.9
20260505074040 18 33 16.1 25.7 0.00 0.00 0.00 69 1002.8
20260505073540 18 48 16.1 25.7 0.00 0.00 0.00 70 1002.7
20260505073048 18 42 16.1 24.1 0.00 0.00 0.00 71 1002.7
20260505072540 18 19 16.1 22.5 0.00 0.00 0.00 73 1002.7
20260505072040 18 36 17.7 22.5 0.00 0.00 0.00 72 1002.7
20260505071552 19 17 16.1 20.9 0.00 0.00 0.00 71 1002.9
20260505071040 20 348 12.9 20.9 0.00 0.00 0.00 73 1002.9
20260505070541 20 25 12.9 20.9 0.00 0.00 0.00 72 1002.7
20260505070047 20 17 8.0 14.5 0.00 0.00 0.00 71 1002.5
20260505065541 20 36 8.0 16.1 0.00 0.00 0.00 71 1002.5
20260505065040 20 30 9.7 16.1 0.00 0.00 0.00 70 1002.4
20260505064549 21 9 9.7 19.3 0.00 0.00 0.00 70 1002.4
20260505064040 21 40 11.3 19.3 0.00 0.00 0.00 70 1002.6
20260505063543 21 34 8.0 14.5 0.00 0.00 0.00 71 1002.5
20260505063051 21 27 4.8 9.7 0.00 0.00 0.00 71 1002.4
20260505062540 21 41 4.8 14.5 0.00 0.00 0.00 71 1002.2
20260505062039 21 83 3.2 14.5 0.00 0.00 0.00 71 1002.0
20260505061551 21 117 4.8 17.7 0.00 0.00 0.00 71 1001.9
20260505061041 21 146 9.7 20.9 0.00 0.00 0.00 71 1001.9
20260505060540 21 134 9.7 20.9 0.00 0.00 0.00 71 1001.8
20260505060050 21 126 3.2 14.5 0.00 0.00 0.00 71 1001.8
20260505055540 21 137 4.8 14.5 0.00 0.00 0.00 71 1001.9
20260505055040 21 41 3.2 17.7 0.00 0.00 0.00 71 1001.9
20260505054549 21 110 3.2 20.9 0.00 0.00 0.00 70 1001.9
20260505054040 21 93 4.8 20.9 0.00 0.00 0.00 70 1001.8
20260505053539 21 160 8.0 24.1 0.00 0.00 0.00 70 1001.5
20260505053052 21 140 11.3 27.4 0.00 0.00 0.00 69 1001.5
20260505052539 21 175 14.5 27.4 0.00 0.00 0.00 69 1001.4
20260505052040 21 140 14.5 27.4 0.00 0.00 0.00 68 1001.3
20260505051549 21 153 12.9 29.0 0.00 0.00 0.00 68 1001.2
20260505051041 21 164 14.5 29.0 0.00 0.00 0.00 69 1001.3
20260505050541 21 126 9.7 24.1 0.00 0.00 0.00 71 1001.3
20260505041548 21 51 4.8 11.3 0.00 0.00 0.00 73 1001.2
20260505041040 21 93 4.8 11.3 0.00 0.00 0.00 72 1001.2
20260505040540 21 121 3.2 11.3 0.00 0.00 0.00 72 1001.1
20260505040051 21 108 4.8 16.1 0.00 0.00 0.00 71 1001.1
20260505035540 22 68 4.8 17.7 0.00 0.00 0.00 71 1001.1
20260505035042 22 178 8.0 19.3 0.00 0.00 0.00 70 1001.1
20260505034549 22 169 9.7 19.3 0.00 0.00 0.00 69 1001.0
20260505034040 22 225 9.7 19.3 0.00 0.00 0.00 68 1001.0
20260505033540 22 130 8.0 17.7 0.00 0.00 0.00 67 1001.0
20260505033052 22 163 8.0 16.1 0.00 0.00 0.00 67 1001.1
20260505032540 22 221 6.4 16.1 0.00 0.00 0.00 66 1001.3
20260505032039 22 247 4.8 19.3 0.00 0.00 0.00 66 1001.5
20260505031552 22 227 9.7 22.5 0.00 0.00 0.00 66 1001.4
20260505031041 22 217 9.7 22.5 0.00 0.00 0.00 65 1001.6
20260505030542 22 147 14.5 25.7 0.00 0.00 0.00 65 1001.3
20260505030049 22 146 16.1 25.7 0.00 0.00 0.00 65 1001.3
20260505025541 22 148 11.3 19.3 0.00 0.00 0.00 65 1001.4
20260505025041 22 141 11.3 19.3 0.00 0.00 0.00 65 1001.4
20260505024552 22 144 11.3 17.7 0.00 0.00 0.00 64 1001.6
20260505024040 23 140 9.7 17.7 0.00 0.00 0.00 64 1001.5
20260505023540 23 78 4.8 11.3 0.00 0.00 0.00 63 1001.4
20260505023054 23 98 4.8 11.3 0.00 0.00 0.00 63 1001.4
20260505022540 23 115 4.8 11.3 0.00 0.00 0.00 62 1001.5
20260505022043 23 51 4.8 11.3 0.00 0.00 0.00 62 1001.6
20260505021545 23 123 3.2 16.1 0.00 0.00 0.00 61 1001.7
20260505021039 23 100 9.7 17.7 0.00 0.00 0.00 61 1001.5
20260505020539 23 153 8.0 19.3 0.00 0.00 0.00 61 1001.8
20260505020048 23 155 8.0 19.3 0.00 0.00 0.00 60 1001.8
20260505015540 23 207 8.0 16.1 0.00 0.00 0.00 60 1001.7
20260505015040 23 217 6.4 17.7 0.00 0.00 0.00 59 1001.6
20260505014550 23 153 8.0 22.5 0.00 0.00 0.00 58 1001.4
20260505014040 23 131 9.7 22.5 0.00 0.00 0.00 58 1001.2
20260505013539 23 142 9.7 17.7 0.00 0.00 0.00 57 1001.2
20260505013042 23 137 8.0 19.3 0.00 0.00 0.00 57 1001.2
20260505012539 24 139 9.7 19.3 0.00 0.00 0.00 57 1001.2
20260505012040 24 214 9.7 20.9 0.00 0.00 0.00 56 1001.2
20260505011543 24 160 11.3 20.9 0.00 0.00 0.00 55 1001.0
20260505011040 24 140 11.3 22.5 0.00 0.00 0.00 55 1000.9
20260505010540 24 126 9.7 22.5 0.00 0.00 0.00 54 1001.0
20260505010104 25 150 11.3 22.5 0.00 0.00 0.00 54 1001.0
20260505005543 25 146 11.3 24.1 0.00 0.00 0.00 53 1000.8
20260505005040 25 147 11.3 24.1 0.00 0.00 0.00 53 1000.8
20260505004546 25 155 14.5 24.1 0.00 0.00 0.00 53 1001.0
20260505004039 25 144 11.3 22.5 0.00 0.00 0.00 52 1000.7
20260505003539 25 141 9.7 22.5 0.00 0.00 0.00 51 1000.9
20260505003047 25 141 11.3 22.5 0.00 0.00 0.00 50 1000.9
20260505002539 25 139 8.0 20.9 0.00 0.00 0.00 50 1000.9
20260505002039 25 213 8.0 20.9 0.00 0.00 0.00 50 1000.9
20260505001548 26 195 8.0 20.9 0.00 0.00 0.00 49 1001.0
20260505001039 26 142 12.9 20.9 0.00 0.00 0.00 49 1000.9
20260505000539 26 173 9.7 25.7 0.00 0.00 0.00 49 1000.9
20260505000048 26 171 8.0 25.7 0.00 0.00 0.00 48 1000.9
20260504235540 26 178 8.0 19.3 0.00 0.00 0.00 48 1001.0
20260504235043 26 142 6.4 17.7 0.00 0.00 0.00 48 1001.1
20260504234548 26 175 6.4 19.3 0.00 0.00 0.00 48 1001.2
20260504234040 26 173 9.7 20.9 0.00 0.00 0.00 47 1001.1
20260504233540 26 207 8.0 20.9 0.00 0.00 0.00 47 1001.1
20260504233045 26 150 9.7 17.7 0.00 0.00 0.00 47 1001.2
20260504232540 26 150 9.7 17.7 0.00 0.00 0.00 46 1001.1
20260504232039 26 156 8.0 25.7 0.00 0.00 0.00 47 1001.2
20260504231547 27 182 8.0 27.4 0.00 0.00 0.00 46 1001.2
20260504231039 27 178 11.3 27.4 0.00 0.00 0.00 45 1001.2
20260504230542 27 178 6.4 16.1 0.00 0.00 0.00 45 1001.2
20260504230047 27 178 6.4 19.3 0.00 0.00 0.00 44 1001.1
20260504225540 27 187 8.0 22.5 0.00 0.00 0.00 44 1001.1
20260504225039 27 182 9.7 22.5 0.00 0.00 0.00 44 1001.2
20260504224545 27 178 8.0 19.3 0.00 0.00 0.00 44 1001.2
20260504224039 27 173 8.0 25.7 0.00 0.00 0.00 44 1001.2
20260504223544 27 182 6.4 25.7 0.00 0.00 0.00 44 1001.2
20260504223059 27 158 12.9 27.4 0.00 0.00 0.00 43 1001.2
20260504222540 28 203 8.0 33.8 0.00 0.00 0.00 43 1001.2
20260504222039 28 178 12.9 33.8 0.00 0.00 0.00 42 1001.2
20260504221559 28 183 11.3 35.4 0.00 0.00 0.00 43 1001.3
20260504221040 28 239 9.7 35.4 0.00 0.00 0.00 42 1001.2
20260504220540 28 183 14.5 33.8 0.00 0.00 0.00 41 1001.3
20260504220046 28 183 9.7 30.6 0.00 0.00 0.00 41 1001.3
20260504215541 28 193 14.5 30.6 0.00 0.00 0.00 41 1001.4
20260504215043 28 178 14.5 32.2 0.00 0.00 0.00 41 1001.4
20260504214543 28 178 8.0 32.2 0.00 0.00 0.00 41 1001.4
20260504214041 28 183 9.7 43.5 0.00 0.00 0.00 41 1001.5
20260504213540 28 177 9.7 43.5 0.00 0.00 0.00 41 1001.4
20260504213102 28 185 12.9 41.8 0.00 0.00 0.00 41 1001.4
20260504212540 28 178 25.7 41.8 0.00 0.00 0.00 39 1001.5
20260504212042 28 178 14.5 37.0 0.00 0.00 0.00 41 1001.5
20260504211549 28 144 16.1 37.0 0.00 0.00 0.00 40 1001.6
20260504211040 28 182 17.7 35.4 0.00 0.00 0.00 38 1001.5
20260504210540 29 186 8.0 35.4 0.00 0.00 0.00 40 1001.7
20260504210049 29 178 11.3 35.4 0.00 0.00 0.00 38 1001.7
20260504205542 29 212 4.8 32.2 0.00 0.00 0.00 41 1001.8
20260504205039 29 175 8.0 32.2 0.00 0.00 0.00 39 1001.9
20260504204542 30 182 9.7 29.0 0.00 0.00 0.00 38 1001.9
20260504204039 30 93 9.7 30.6 0.00 0.00 0.00 38 1002.0
20260504203540 30 235 9.7 30.6 0.00 0.00 0.00 38 1001.9
20260504203050 30 137 12.9 30.6 0.00 0.00 0.00 36 1002.0
20260504202540 30 178 9.7 30.6 0.00 0.00 0.00 37 1001.9
20260504202041 30 185 4.8 32.2 0.00 0.00 0.00 39 1001.9
20260504201546 30 291 6.4 33.8 0.00 0.00 0.00 38 1002.1
20260504201043 30 182 20.9 33.8 0.00 0.00 0.00 36 1002.2
20260504200540 30 177 12.9 25.7 0.00 0.00 0.00 37 1002.1
20260504200049 30 0 12.9 25.7 0.00 0.00 0.00 37 1002.2
20260504195539 30 182 8.0 33.8 0.00 0.00 0.00 36 1002.3
20260504195040 30 185 6.4 33.8 0.00 0.00 0.00 38 1002.4
20260504194551 30 180 11.3 27.4 0.00 0.00 0.00 36 1002.5
20260504194040 30 178 6.4 24.1 0.00 0.00 0.00 37 1002.5
20260504193542 30 178 3.2 12.9 0.00 0.00 0.00 36 1002.5
20260504193050 30 187 1.6 20.9 0.00 0.00 0.00 37 1002.6
20260504192539 30 271 4.8 22.5 0.00 0.00 0.00 36 1002.7
20260504192042 29 178 8.0 22.5 0.00 0.00 0.00 39 1002.8
20260504191549 29 178 6.4 17.7 0.00 0.00 0.00 36 1002.7
20260504191040 28 182 6.4 22.5 0.00 0.00 0.00 39 1002.7
20260504190541 28 168 3.2 22.5 0.00 0.00 0.00 36 1002.8
20260504190053 28 178 3.2 22.5 0.00 0.00 0.00 38 1002.7
20260504185541 28 250 6.4 22.5 0.00 0.00 0.00 38 1003.0
20260504185041 28 178 3.2 19.3 0.00 0.00 0.00 41 1003.0
20260504184548 28 178 6.4 20.9 0.00 0.00 0.00 40 1003.0
20260504184041 28 232 9.7 24.1 0.00 0.00 0.00 39 1003.0
20260504183540 28 178 4.8 24.1 0.00 0.00 0.00 39 1003.0
20260504183050 28 182 11.3 24.1 0.00 0.00 0.00 40 1003.1
20260504182540 27 186 3.2 11.3 0.00 0.00 0.00 38 1003.2
20260504182040 27 196 4.8 27.4 0.00 0.00 0.00 39 1003.2
20260504181550 28 292 8.0 27.4 0.00 0.00 0.00 43 1003.3
20260504181042 27 185 4.8 25.7 0.00 0.00 0.00 41 1003.6
20260504180542 27 183 4.8 25.7 0.00 0.00 0.00 39 1003.6
20260504180051 27 183 8.0 29.0 0.00 0.00 0.00 40 1003.6
20260504175541 27 282 6.4 29.0 0.00 0.00 0.00 43 1003.8
20260504175041 27 182 8.0 27.4 0.00 0.00 0.00 41 1003.7
20260504174549 27 309 4.8 14.5 0.00 0.00 0.00 44 1003.7
20260504174041 26 0 4.8 19.3 0.00 0.00 0.00 41 1003.9
20260504173540 26 183 4.8 25.7 0.00 0.00 0.00 41 1003.9
20260504173049 27 219 8.0 25.7 0.00 0.00 0.00 41 1003.9
20260504172540 26 187 4.8 20.9 0.00 0.00 0.00 42 1003.9
20260504172041 26 200 3.2 19.3 0.00 0.00 0.00 44 1003.9
20260504171545 26 273 4.8 14.5 0.00 0.00 0.00 45 1003.9
20260504171041 26 184 6.4 17.7 0.00 0.00 0.00 44 1003.9
20260504170544 25 215 6.4 24.1 0.00 0.00 0.00 43 1003.9
20260504151039 21 198 8.0 20.9 0.00 0.00 0.00 53 1004.4
20260504150539 21 163 9.7 20.9 0.00 0.00 0.00 54 1004.4
20260504150108 21 288 4.8 17.7 0.00 0.00 0.00 54 1004.5
20260504141039 19 287 6.4 20.9 0.00 0.00 0.00 56 1004.7
20260504140539 18 207 9.7 20.9 0.00 0.00 0.00 56 1004.7
20260504130539 17 153 8.0 19.3 0.00 0.00 0.00 60 1004.7
20260504110542 16 257 3.2 14.5 0.00 0.00 0.00 57 1004.9
20260504100540 17 164 6.4 27.4 0.00 0.00 0.00 54 1005.4